createdAt,value
2022-11-27T00:14:55.472Z,2.67
2022-11-27T00:29:57.119Z,2.64
2022-11-27T00:44:58.563Z,2.83
2022-11-27T00:59:59.967Z,2.85
2022-11-27T01:15:01.331Z,2.51
2022-11-27T01:30:02.725Z,2.47
2022-11-27T01:45:04.093Z,2.37
2022-11-27T02:00:05.634Z,2.59
2022-11-27T02:15:13.861Z,2.31
2022-11-27T02:30:15.288Z,2.09
2022-11-27T02:45:16.698Z,2.16
2022-11-27T03:00:20.492Z,2.42
2022-11-27T03:15:21.896Z,2.18
2022-11-27T03:30:23.330Z,1.71
2022-11-27T03:45:24.740Z,1.14
2022-11-27T04:00:26.130Z,1.20
2022-11-27T04:15:27.619Z,1.30
2022-11-27T04:30:29.013Z,1.58
2022-11-27T04:45:30.683Z,1.77
2022-11-27T05:00:32.156Z,0.88
2022-11-27T05:15:33.568Z,-0.81
2022-11-27T05:30:34.974Z,-0.23
2022-11-27T05:45:36.400Z,-1.32
2022-11-27T06:00:37.829Z,-1.06
2022-11-27T06:15:39.322Z,-0.47
2022-11-27T06:30:40.753Z,-0.51
2022-11-27T06:45:42.215Z,-0.59
2022-11-27T07:00:43.799Z,-0.42
2022-11-27T07:15:45.258Z,-0.45
2022-11-27T07:30:46.711Z,-0.44
2022-11-27T07:45:48.249Z,-0.27
2022-11-27T08:00:49.779Z,-0.06
2022-11-27T08:15:51.170Z,1.57
2022-11-27T08:30:52.590Z,2.94
2022-11-27T08:45:54.065Z,3.13
2022-11-27T09:00:55.579Z,3.41
2022-11-27T09:15:57.531Z,6.47
2022-11-27T09:30:58.948Z,7.87
2022-11-27T09:46:01.345Z,8.77
2022-11-27T10:01:02.813Z,9.16
2022-11-27T10:16:04.312Z,11.01
2022-11-27T10:31:05.823Z,10.26
2022-11-27T10:46:07.298Z,10.01
2022-11-27T11:01:09.095Z,10.14
2022-11-27T11:16:14.491Z,10.09
2022-11-27T11:31:16.631Z,10.08
2022-11-27T11:46:18.216Z,10.21
2022-11-27T12:01:26.964Z,10.26
2022-11-27T12:16:29.077Z,10.56
2022-11-27T12:31:31.253Z,10.04
2022-11-27T12:46:33.030Z,10.59
2022-11-27T13:01:34.670Z,9.79
2022-11-27T13:16:36.170Z,7.55
2022-11-27T13:31:39.171Z,7.11
2022-11-27T13:46:40.658Z,7.08
2022-11-27T14:01:42.216Z,6.69
2022-11-27T14:16:43.746Z,6.34
2022-11-27T14:31:45.216Z,6.08
2022-11-27T14:46:46.733Z,5.89
2022-11-27T15:01:48.399Z,5.67
2022-11-27T15:16:49.909Z,5.36
2022-11-27T15:31:51.891Z,4.78
2022-11-27T15:46:53.400Z,4.39
2022-11-27T16:01:56.021Z,4.07
2022-11-27T16:16:57.650Z,3.73
2022-11-27T16:31:59.236Z,3.54
2022-11-27T16:47:01.848Z,3.48
2022-11-27T17:02:03.981Z,3.25
2022-11-27T17:17:06.509Z,3.13
2022-11-27T17:32:12.850Z,3.04
2022-11-27T17:47:15.473Z,2.75
2022-11-27T18:02:17.874Z,2.66
2022-11-27T18:17:19.537Z,2.55
2022-11-27T18:32:21.310Z,2.74
2022-11-27T18:47:22.846Z,2.79
2022-11-27T19:02:24.574Z,2.51
2022-11-27T19:17:30.921Z,2.46
2022-11-27T19:32:34.168Z,2.38
2022-11-27T19:47:36.783Z,2.17
2022-11-27T20:02:40.139Z,2.23
2022-11-27T20:17:42.393Z,2.25
2022-11-27T20:32:43.853Z,2.18
2022-11-27T20:47:45.261Z,1.98
2022-11-27T21:02:47.054Z,2.11
2022-11-27T21:17:48.518Z,2.09
2022-11-27T21:32:50.056Z,2.03
2022-11-27T21:47:52.024Z,1.87
2022-11-27T22:02:53.727Z,1.65
2022-11-27T22:17:55.284Z,1.57
2022-11-27T22:32:56.741Z,1.44
2022-11-27T22:47:58.181Z,1.53
2022-11-27T23:03:00.211Z,1.44
2022-11-27T23:18:01.933Z,1.49
2022-11-27T23:33:03.476Z,1.56
2022-11-27T23:48:04.883Z,1.84
